createdAt,value
2022-09-24T00:00:38.626Z,12.80
2022-09-24T00:04:05.407Z,12.80
2022-09-24T00:07:09.353Z,12.80
2022-09-24T00:10:41.172Z,12.79
2022-09-24T00:13:44.182Z,12.79
2022-09-24T00:16:47.248Z,12.80
2022-09-24T00:19:50.825Z,12.80
2022-09-24T00:22:53.742Z,12.79
2022-09-24T00:26:15.309Z,12.79
2022-09-24T00:29:24.392Z,12.76
2022-09-24T00:32:27.443Z,12.71
2022-09-24T00:35:35.782Z,12.71
2022-09-24T00:38:38.870Z,12.69
2022-09-24T00:41:45.618Z,12.66
2022-09-24T00:44:51.962Z,12.64
2022-09-24T00:47:56.252Z,12.63
2022-09-24T00:51:00.169Z,12.65
2022-09-24T00:54:28.665Z,12.64
2022-09-24T00:57:33.954Z,12.63
2022-09-24T01:00:39.476Z,12.63
2022-09-24T01:03:42.838Z,12.61
2022-09-24T01:06:49.056Z,12.57
2022-09-24T01:09:52.522Z,12.51
2022-09-24T01:13:09.147Z,12.49
2022-09-24T01:16:17.350Z,12.46
2022-09-24T01:19:41.904Z,12.43
2022-09-24T01:23:13.024Z,12.38
2022-09-24T01:26:20.201Z,12.35
2022-09-24T01:29:48.451Z,12.32
2022-09-24T01:32:54.242Z,12.30
2022-09-24T01:36:05.050Z,12.32
2022-09-24T01:39:09.335Z,12.33
2022-09-24T01:42:14.066Z,12.33
2022-09-24T01:45:18.898Z,12.31
2022-09-24T01:48:23.500Z,12.27
2022-09-24T01:51:33.311Z,12.25
2022-09-24T01:54:41.046Z,12.25
2022-09-24T01:57:50.014Z,12.22
2022-09-24T02:00:58.475Z,12.21
2022-09-24T02:04:06.486Z,12.19
2022-09-24T02:07:22.297Z,12.15
2022-09-24T02:10:33.424Z,12.15
2022-09-24T02:13:48.313Z,12.15
2022-09-24T02:16:52.432Z,12.15
2022-09-24T02:19:58.355Z,12.16
2022-09-24T02:23:03.628Z,12.18
2022-09-24T02:26:07.138Z,12.15
2022-09-24T02:29:10.287Z,12.16
2022-09-24T02:32:19.556Z,12.18
2022-09-24T02:35:23.283Z,12.15
2022-09-24T02:38:26.533Z,12.11
2022-09-24T02:41:31.766Z,12.08
2022-09-24T02:44:36.538Z,12.06
2022-09-24T02:47:39.587Z,12.07
2022-09-24T02:50:42.615Z,12.07
2022-09-24T02:53:45.994Z,12.05
2022-09-24T02:56:49.284Z,12.01
2022-09-24T02:59:53.609Z,12.04
2022-09-24T03:02:56.678Z,12.06
2022-09-24T03:05:59.878Z,12.06
2022-09-24T03:09:04.357Z,12.05
2022-09-24T03:12:07.452Z,12.05
2022-09-24T03:15:11.262Z,12.05
2022-09-24T03:18:14.983Z,12.06
2022-09-24T03:21:22.424Z,12.06
2022-09-24T03:24:27.818Z,12.05
2022-09-24T03:27:30.921Z,12.01
2022-09-24T03:30:52.302Z,12.00
2022-09-24T03:33:56.131Z,12.01
2022-09-24T03:36:59.268Z,12.04
2022-09-24T03:40:02.767Z,12.04
2022-09-24T03:43:06.004Z,12.02
2022-09-24T03:46:10.419Z,12.08
2022-09-24T03:49:13.500Z,12.10
2022-09-24T03:52:17.381Z,12.11
2022-09-24T03:55:20.568Z,12.12
2022-09-24T03:58:24.795Z,12.11
2022-09-24T04:01:29.358Z,12.11
2022-09-24T04:04:32.491Z,12.11
2022-09-24T04:07:35.501Z,12.12
2022-09-24T04:10:38.631Z,12.12
2022-09-24T04:13:41.587Z,12.14
2022-09-24T04:16:45.568Z,12.13
2022-09-24T04:19:49.106Z,12.15
2022-09-24T04:22:54.319Z,12.14
2022-09-24T04:26:00.920Z,12.12
2022-09-24T04:29:04.191Z,12.12
2022-09-24T04:32:07.275Z,12.11
2022-09-24T04:35:10.998Z,12.11
2022-09-24T04:38:14.609Z,12.12
2022-09-24T04:41:17.986Z,12.14
2022-09-24T04:44:21.358Z,12.14
2022-09-24T04:47:26.119Z,12.15
2022-09-24T04:50:33.409Z,12.17
2022-09-24T04:53:37.647Z,12.14
2022-09-24T04:56:40.682Z,12.10
2022-09-24T04:59:44.549Z,12.09
2022-09-24T05:02:48.344Z,12.08
2022-09-24T05:05:51.534Z,12.07
2022-09-24T05:08:54.605Z,12.04
2022-09-24T05:12:01.541Z,12.04
2022-09-24T05:15:05.130Z,12.03
2022-09-24T05:18:08.225Z,12.04
2022-09-24T05:21:11.303Z,12.06
2022-09-24T05:24:14.994Z,12.06
2022-09-24T05:27:20.096Z,12.05
2022-09-24T05:30:25.330Z,12.04
2022-09-24T05:33:28.392Z,12.03
2022-09-24T05:36:31.541Z,12.03
2022-09-24T05:39:34.745Z,12.04
2022-09-24T05:42:37.973Z,12.04
2022-09-24T05:45:45.044Z,12.04
2022-09-24T05:48:48.179Z,12.05
2022-09-24T05:51:51.301Z,12.07
2022-09-24T05:54:54.551Z,12.09
2022-09-24T05:58:03.774Z,12.08
2022-09-24T06:01:06.942Z,12.07
2022-09-24T06:04:12.328Z,12.09
2022-09-24T06:07:15.484Z,12.10
2022-09-24T06:10:21.771Z,12.12
2022-09-24T06:13:25.345Z,12.15
2022-09-24T06:16:28.372Z,12.15
2022-09-24T06:19:31.519Z,12.19
2022-09-24T06:22:34.931Z,12.21
2022-09-24T06:25:38.032Z,12.23
2022-09-24T06:28:42.150Z,12.28
2022-09-24T06:31:46.010Z,12.34
2022-09-24T06:34:55.580Z,12.35
2022-09-24T06:38:03.375Z,12.37
2022-09-24T06:41:07.393Z,12.39
2022-09-24T06:44:11.005Z,12.41
2022-09-24T06:47:14.318Z,12.46
2022-09-24T06:50:17.532Z,12.51
2022-09-24T06:53:20.883Z,12.59
2022-09-24T06:56:23.871Z,12.64
2022-09-24T06:59:27.018Z,12.68
2022-09-24T07:02:31.462Z,12.72
2022-09-24T07:05:37.294Z,12.76
2022-09-24T07:08:44.007Z,12.77
2022-09-24T07:11:46.941Z,12.82
2022-09-24T07:14:50.221Z,12.84
2022-09-24T07:17:57.447Z,12.85
2022-09-24T07:21:00.505Z,12.85
2022-09-24T07:24:03.703Z,12.85
2022-09-24T07:27:07.436Z,12.86
2022-09-24T07:30:11.235Z,12.87
2022-09-24T07:33:14.261Z,12.87
2022-09-24T07:36:17.298Z,12.88
2022-09-24T07:39:20.520Z,12.90
2022-09-24T07:42:23.744Z,12.91
2022-09-24T07:45:29.819Z,12.91
2022-09-24T07:48:33.099Z,12.96
2022-09-24T07:51:36.794Z,12.96
2022-09-24T07:54:39.912Z,12.94
2022-09-24T07:57:47.871Z,12.98
2022-09-24T08:00:53.182Z,13.04
2022-09-24T08:03:56.386Z,13.09
2022-09-24T08:07:01.372Z,13.13
2022-09-24T08:10:09.183Z,13.20
2022-09-24T08:13:27.899Z,13.26
2022-09-24T08:16:31.119Z,13.33
2022-09-24T08:19:39.249Z,13.39
2022-09-24T08:22:42.442Z,13.44
2022-09-24T08:25:46.252Z,13.53
2022-09-24T08:28:49.604Z,13.56
2022-09-24T08:31:53.076Z,13.59
2022-09-24T08:34:56.825Z,13.63
2022-09-24T08:38:04.217Z,13.65
2022-09-24T08:41:13.520Z,13.72
2022-09-24T08:44:44.741Z,13.78
2022-09-24T08:47:55.191Z,13.82
2022-09-24T08:51:06.169Z,13.88
2022-09-24T08:54:13.564Z,13.92
2022-09-24T08:57:19.006Z,13.96
2022-09-24T09:00:22.480Z,14.00
2022-09-24T09:03:40.804Z,14.04
2022-09-24T09:06:57.566Z,14.08
2022-09-24T09:10:11.550Z,14.13
2022-09-24T09:13:27.925Z,14.15
2022-09-24T09:16:58.867Z,14.19
2022-09-24T09:20:07.536Z,14.21
2022-09-24T09:23:18.845Z,14.25
2022-09-24T09:26:22.036Z,14.29
2022-09-24T09:29:28.308Z,14.29
2022-09-24T09:32:39.983Z,14.33
2022-09-24T09:35:48.831Z,14.36
2022-09-24T09:39:10.357Z,14.40
2022-09-24T09:42:16.547Z,14.42
2022-09-24T09:46:01.150Z,14.44
2022-09-24T09:49:08.083Z,14.46
2022-09-24T09:52:18.415Z,14.51
2022-09-24T09:55:28.099Z,14.55
2022-09-24T09:58:33.974Z,14.60
2022-09-24T10:01:49.885Z,14.65
2022-09-24T10:04:56.496Z,14.67
2022-09-24T10:07:59.614Z,14.72
2022-09-24T10:11:10.733Z,14.77
2022-09-24T10:14:21.858Z,14.79
2022-09-24T10:17:29.851Z,14.86
2022-09-24T10:20:34.745Z,14.92
2022-09-24T10:23:50.020Z,14.99
2022-09-24T10:26:56.032Z,15.06
2022-09-24T10:30:18.319Z,15.11
2022-09-24T10:33:22.119Z,15.17
2022-09-24T10:36:28.461Z,15.24
2022-09-24T10:39:31.642Z,15.27
2022-09-24T10:42:39.960Z,15.30
2022-09-24T10:46:03.310Z,15.33
2022-09-24T10:49:22.087Z,15.38
2022-09-24T10:52:47.901Z,15.41
2022-09-24T10:55:58.568Z,15.43
2022-09-24T10:59:17.129Z,15.50
2022-09-24T11:02:45.212Z,15.54
2022-09-24T11:06:00.855Z,15.58
2022-09-24T11:09:27.018Z,15.58
2022-09-24T11:12:54.523Z,15.58
2022-09-24T11:16:26.716Z,15.60
2022-09-24T11:19:45.292Z,15.66
2022-09-24T11:22:48.313Z,15.79
2022-09-24T11:26:07.997Z,15.89
2022-09-24T11:29:31.101Z,16.00
2022-09-24T11:32:55.281Z,16.08
2022-09-24T11:36:13.285Z,16.17
2022-09-24T11:39:31.918Z,16.25
2022-09-24T11:42:57.550Z,16.31
2022-09-24T11:46:22.604Z,16.32
2022-09-24T11:49:53.955Z,16.36
2022-09-24T11:53:05.253Z,16.38
2022-09-24T11:56:36.542Z,16.44
2022-09-24T11:59:44.140Z,16.51
2022-09-24T12:03:08.211Z,16.56
2022-09-24T12:06:17.681Z,16.62
2022-09-24T12:09:51.920Z,16.65
2022-09-24T12:13:01.077Z,16.68
2022-09-24T12:16:15.591Z,16.70
2022-09-24T12:19:27.371Z,16.72
2022-09-24T12:22:33.278Z,16.75
2022-09-24T12:25:45.578Z,16.78
2022-09-24T12:29:37.042Z,16.80
2022-09-24T12:33:01.545Z,16.81
2022-09-24T12:36:38.108Z,16.86
2022-09-24T12:39:53.647Z,16.89
2022-09-24T12:42:59.999Z,16.90
2022-09-24T12:46:05.461Z,16.94
2022-09-24T12:49:26.868Z,16.99
2022-09-24T12:52:42.905Z,17.04
2022-09-24T12:55:45.972Z,17.10
2022-09-24T12:58:49.610Z,17.18
2022-09-24T13:01:52.985Z,17.27
2022-09-24T13:05:02.236Z,17.33
2022-09-24T13:08:08.049Z,17.39
2022-09-24T13:11:26.042Z,17.42
2022-09-24T13:14:32.639Z,17.47
2022-09-24T13:17:38.749Z,17.56
2022-09-24T13:20:49.244Z,17.65
2022-09-24T13:23:54.352Z,17.75
2022-09-24T13:27:22.383Z,17.83
2022-09-24T13:30:38.962Z,17.91
2022-09-24T13:33:55.135Z,18.00
2022-09-24T13:37:15.525Z,18.07
2022-09-24T13:40:22.839Z,18.14
2022-09-24T13:43:48.129Z,18.21
2022-09-24T13:46:59.449Z,18.27
2022-09-24T13:50:14.516Z,18.32
2022-09-24T13:53:26.606Z,18.39
2022-09-24T13:56:30.520Z,18.42
2022-09-24T13:59:33.881Z,18.45
2022-09-24T14:02:38.676Z,18.49
2022-09-24T14:05:42.151Z,18.53
2022-09-24T14:08:47.062Z,18.60
2022-09-24T14:11:52.546Z,18.62
2022-09-24T14:14:59.219Z,18.59
2022-09-24T14:18:03.907Z,18.52
2022-09-24T14:21:28.000Z,18.54
2022-09-24T14:24:41.011Z,18.58
2022-09-24T14:27:47.681Z,18.62
2022-09-24T14:30:56.358Z,18.65
2022-09-24T14:34:04.243Z,18.70
2022-09-24T14:37:20.917Z,18.75
2022-09-24T14:40:26.047Z,18.73
2022-09-24T14:43:41.436Z,18.73
2022-09-24T14:46:52.057Z,18.77
2022-09-24T14:49:55.607Z,18.78
2022-09-24T14:53:00.924Z,18.76
2022-09-24T14:56:27.175Z,18.69
2022-09-24T14:59:36.357Z,18.56
2022-09-24T15:02:40.049Z,18.51
2022-09-24T15:05:45.222Z,18.46
2022-09-24T15:09:02.553Z,18.41
2022-09-24T15:12:10.311Z,18.36
2022-09-24T15:15:21.201Z,18.34
2022-09-24T15:18:24.371Z,18.33
2022-09-24T15:21:28.161Z,18.38
2022-09-24T15:24:31.336Z,18.47
2022-09-24T15:27:38.555Z,18.53
2022-09-24T15:30:45.047Z,18.53
2022-09-24T15:33:48.295Z,18.61
2022-09-24T15:36:59.694Z,18.69
2022-09-24T15:40:15.659Z,18.77
2022-09-24T15:43:22.009Z,18.86
2022-09-24T15:46:26.605Z,18.82
2022-09-24T15:49:29.695Z,18.74
2022-09-24T15:52:36.961Z,18.67
2022-09-24T15:55:40.047Z,18.57
2022-09-24T15:58:43.523Z,18.48
2022-09-24T16:01:49.815Z,18.39
2022-09-24T16:04:53.117Z,18.28
2022-09-24T16:07:56.438Z,18.21
2022-09-24T16:10:59.597Z,18.10
2022-09-24T16:14:02.555Z,18.01
2022-09-24T16:17:05.802Z,17.93
2022-09-24T16:20:10.311Z,17.85
2022-09-24T16:23:15.601Z,17.75
2022-09-24T16:26:18.515Z,17.67
2022-09-24T16:29:22.011Z,17.60
2022-09-24T16:32:25.134Z,17.51
2022-09-24T16:35:28.229Z,17.41
2022-09-24T16:38:34.903Z,17.32
2022-09-24T16:41:38.222Z,17.25
2022-09-24T16:44:41.525Z,17.19
2022-09-24T16:47:44.986Z,17.11
2022-09-24T16:50:49.752Z,17.05
2022-09-24T16:53:56.617Z,16.98
2022-09-24T16:56:59.711Z,16.91
2022-09-24T17:00:05.423Z,16.83
2022-09-24T17:03:11.381Z,16.77
2022-09-24T17:06:22.624Z,16.69
2022-09-24T17:09:44.635Z,16.65
2022-09-24T17:12:51.656Z,16.58
2022-09-24T17:15:54.711Z,16.53
2022-09-24T17:18:58.000Z,16.49
2022-09-24T17:22:02.438Z,16.45
2022-09-24T17:25:07.116Z,16.40
2022-09-24T17:28:12.303Z,16.35
2022-09-24T17:31:17.766Z,16.28
2022-09-24T17:34:20.994Z,16.20
2022-09-24T17:37:24.360Z,16.16
2022-09-24T17:40:27.518Z,16.14
2022-09-24T17:43:37.516Z,16.11
2022-09-24T17:46:41.200Z,16.08
2022-09-24T17:49:44.347Z,16.04
2022-09-24T17:52:47.543Z,16.01
2022-09-24T17:55:52.188Z,15.99
2022-09-24T17:58:59.454Z,15.98
2022-09-24T18:02:07.027Z,15.95
2022-09-24T18:05:11.194Z,15.93
2022-09-24T18:08:16.069Z,15.90
2022-09-24T18:11:28.776Z,15.89
2022-09-24T18:14:32.341Z,15.86
2022-09-24T18:17:36.809Z,15.82
2022-09-24T18:20:42.464Z,15.80
2022-09-24T18:23:46.888Z,15.74
2022-09-24T18:26:52.538Z,15.70
2022-09-24T18:29:58.507Z,15.70
2022-09-24T18:33:02.441Z,15.70
2022-09-24T18:36:08.469Z,15.69
2022-09-24T18:39:15.813Z,15.69
2022-09-24T18:42:21.008Z,15.69
2022-09-24T18:45:25.465Z,15.69
2022-09-24T18:48:28.466Z,15.69
2022-09-24T18:51:33.646Z,15.69
2022-09-24T18:54:36.792Z,15.67
2022-09-24T18:57:39.933Z,15.66
2022-09-24T19:00:52.160Z,15.64
2022-09-24T19:03:56.019Z,15.61
2022-09-24T19:06:59.162Z,15.60
2022-09-24T19:10:27.525Z,15.59
2022-09-24T19:13:31.779Z,15.61
2022-09-24T19:16:34.969Z,15.62
2022-09-24T19:19:38.125Z,15.60
2022-09-24T19:22:48.378Z,15.53
2022-09-24T19:25:52.006Z,15.54
2022-09-24T19:28:56.501Z,15.56
2022-09-24T19:31:59.946Z,15.55
2022-09-24T19:35:03.061Z,15.55
2022-09-24T19:38:06.494Z,15.53
2022-09-24T19:41:27.074Z,15.47
2022-09-24T19:44:32.134Z,15.48
2022-09-24T19:47:35.518Z,15.46
2022-09-24T19:50:42.139Z,15.42
2022-09-24T19:53:50.709Z,15.39
2022-09-24T19:56:55.851Z,15.36
2022-09-24T20:00:01.651Z,15.33
2022-09-24T20:03:05.754Z,15.27
2022-09-24T20:06:21.140Z,15.25
2022-09-24T20:09:24.527Z,15.19
2022-09-24T20:12:28.033Z,15.15
2022-09-24T20:15:33.853Z,15.12
2022-09-24T20:18:36.908Z,15.10
2022-09-24T20:21:41.032Z,15.07
2022-09-24T20:24:44.167Z,15.06
2022-09-24T20:27:51.455Z,15.05
2022-09-24T20:30:56.758Z,15.01
2022-09-24T20:33:59.937Z,14.97
2022-09-24T20:37:06.009Z,14.93
2022-09-24T20:40:10.124Z,14.89
2022-09-24T20:43:14.618Z,14.84
2022-09-24T20:46:41.728Z,14.81
2022-09-24T20:49:45.466Z,14.78
2022-09-24T20:52:49.556Z,14.75
2022-09-24T20:55:56.007Z,14.73
2022-09-24T20:59:01.189Z,14.70
2022-09-24T21:02:04.771Z,14.67
2022-09-24T21:05:10.243Z,14.62
2022-09-24T21:08:16.840Z,14.60
2022-09-24T21:11:31.013Z,14.56
2022-09-24T21:14:36.224Z,14.55
2022-09-24T21:17:40.128Z,14.55
2022-09-24T21:20:43.568Z,14.51
2022-09-24T21:23:49.543Z,14.50
2022-09-24T21:26:52.846Z,14.47
2022-09-24T21:29:56.703Z,14.43
2022-09-24T21:33:00.809Z,14.39
2022-09-24T21:36:09.547Z,14.38
2022-09-24T21:39:13.693Z,14.37
2022-09-24T21:42:17.312Z,14.32
2022-09-24T21:45:21.420Z,14.33
2022-09-24T21:48:26.386Z,14.24
2022-09-24T21:51:30.553Z,14.31
2022-09-24T21:54:36.655Z,14.30
2022-09-24T21:57:44.294Z,14.28
2022-09-24T22:00:47.380Z,14.29
2022-09-24T22:03:55.129Z,14.27
2022-09-24T22:06:58.986Z,14.24
2022-09-24T22:10:27.798Z,14.23
2022-09-24T22:13:37.052Z,14.19
2022-09-24T22:16:41.417Z,14.17
2022-09-24T22:19:44.799Z,14.17
2022-09-24T22:22:48.366Z,14.15
2022-09-24T22:25:56.652Z,14.11
2022-09-24T22:29:00.808Z,14.11
2022-09-24T22:32:04.560Z,14.12
2022-09-24T22:35:28.969Z,14.12
2022-09-24T22:38:34.727Z,14.11
2022-09-24T22:41:43.724Z,14.11
2022-09-24T22:44:46.954Z,14.10
2022-09-24T22:47:49.917Z,14.09
2022-09-24T22:50:52.940Z,14.07
2022-09-24T22:53:57.182Z,14.05
2022-09-24T22:57:00.424Z,14.05
2022-09-24T23:00:06.357Z,14.04
2022-09-24T23:03:09.348Z,14.04
2022-09-24T23:06:12.272Z,14.04
2022-09-24T23:09:15.888Z,14.03
2022-09-24T23:12:19.564Z,14.03
2022-09-24T23:15:25.602Z,14.03
2022-09-24T23:18:28.614Z,14.03
2022-09-24T23:21:32.918Z,14.04
2022-09-24T23:24:36.111Z,14.04
2022-09-24T23:27:39.234Z,14.02
2022-09-24T23:30:43.208Z,14.02
2022-09-24T23:33:47.977Z,14.01
2022-09-24T23:36:51.217Z,14.01
2022-09-24T23:39:54.184Z,13.99
2022-09-24T23:42:58.520Z,13.96
2022-09-24T23:46:01.921Z,13.92
2022-09-24T23:49:04.897Z,13.90
2022-09-24T23:52:09.784Z,13.91
2022-09-24T23:55:13.213Z,13.88
2022-09-24T23:58:18.277Z,13.86
